createdAt,value
2018-05-16T00:01:21.791Z,40.73
2018-05-16T00:03:58.612Z,40.75
2018-05-16T00:06:29.122Z,41.01
2018-05-16T00:09:11.624Z,40.87
2018-05-16T00:11:44.454Z,41.06
2018-05-16T00:14:15.680Z,41.41
2018-05-16T00:16:52.563Z,41.58
2018-05-16T00:19:23.699Z,41.58
2018-05-16T00:22:06.334Z,41.74
2018-05-16T00:24:37.233Z,41.84
2018-05-16T00:29:51.483Z,41.45
2018-05-16T00:32:23.416Z,41.76
2018-05-16T00:34:54.260Z,41.82
2018-05-16T00:37:28.006Z,42.09
2018-05-16T00:40:10.364Z,42.28
2018-05-16T00:42:40.812Z,42.76
2018-05-16T00:45:25.341Z,43.29
2018-05-16T00:47:55.944Z,43.72
2018-05-16T00:50:27.664Z,43.77
2018-05-16T00:53:08.596Z,43.85
2018-05-16T00:55:39.377Z,44.08
2018-05-16T00:58:10.063Z,44.21
2018-05-16T01:00:40.618Z,44.14
2018-05-16T01:03:15.270Z,44.61
2018-05-16T01:05:46.724Z,45.01
2018-05-16T01:08:19.195Z,45.32
2018-05-16T01:10:50.916Z,45.36
2018-05-16T01:13:21.337Z,45.36
2018-05-16T01:15:52.270Z,45.56
2018-05-16T01:18:30.644Z,45.84
2018-05-16T01:21:06.600Z,45.96
2018-05-16T01:23:36.880Z,45.65
2018-05-16T01:26:07.615Z,45.38
2018-05-16T01:28:39.820Z,45.33
2018-05-16T01:31:10.819Z,45.44
2018-05-16T01:33:41.774Z,45.33
2018-05-16T01:36:12.276Z,45.22
2018-05-16T01:38:43.043Z,44.89
2018-05-16T01:41:13.298Z,44.97
2018-05-16T01:43:43.998Z,44.87
2018-05-16T01:46:16.129Z,45.16
2018-05-16T01:48:56.032Z,45.38
2018-05-16T01:51:30.182Z,46.00
2018-05-16T01:54:01.063Z,45.96
2018-05-16T01:56:31.650Z,46.67
2018-05-16T01:59:03.705Z,47.24
2018-05-16T02:01:34.749Z,47.85
2018-05-16T02:04:07.789Z,47.99
2018-05-16T02:06:39.058Z,48.98
2018-05-16T02:09:10.483Z,49.08
2018-05-16T02:11:45.971Z,48.21
2018-05-16T02:14:17.377Z,49.04
2018-05-16T02:16:49.911Z,49.62
2018-05-16T02:19:23.555Z,49.91
2018-05-16T02:21:54.738Z,50.49
2018-05-16T02:24:29.439Z,50.82
2018-05-16T02:27:06.822Z,50.99
2018-05-16T02:29:39.566Z,50.85
2018-05-16T02:32:15.710Z,51.14
2018-05-16T02:34:47.856Z,51.66
2018-05-16T02:37:20.863Z,52.15
2018-05-16T02:39:52.463Z,52.09
2018-05-16T02:42:24.896Z,52.35
2018-05-16T02:44:55.219Z,52.85
2018-05-16T02:47:26.135Z,52.66
2018-05-16T02:49:57.241Z,53.01
2018-05-16T02:52:29.459Z,52.57
2018-05-16T02:55:00.185Z,52.38
2018-05-16T02:57:30.592Z,52.04
2018-05-16T03:00:00.963Z,52.33
2018-05-16T03:02:39.863Z,51.18
2018-05-16T03:05:10.614Z,50.75
2018-05-16T03:07:44.403Z,50.90
2018-05-16T03:10:15.834Z,52.07
2018-05-16T03:12:47.002Z,52.24
2018-05-16T03:15:22.446Z,51.10
2018-05-16T03:17:52.970Z,50.65
2018-05-16T03:20:30.708Z,50.65
2018-05-16T03:23:02.575Z,51.79
2018-05-16T03:25:33.372Z,51.54
2018-05-16T03:28:08.871Z,50.92
2018-05-16T03:30:40.472Z,50.90
2018-05-16T03:33:11.215Z,51.05
2018-05-16T03:35:42.368Z,51.82
2018-05-16T03:38:12.896Z,51.64
2018-05-16T03:40:43.178Z,51.17
2018-05-16T03:43:14.728Z,51.27
2018-05-16T03:45:45.462Z,51.44
2018-05-16T03:48:16.028Z,51.17
2018-05-16T03:50:46.628Z,50.80
2018-05-16T03:53:16.936Z,51.03
2018-05-16T03:55:47.475Z,51.86
2018-05-16T03:58:29.109Z,51.87
2018-05-16T04:01:11.693Z,52.22
2018-05-16T04:03:53.339Z,52.37
2018-05-16T04:06:23.898Z,52.41
2018-05-16T04:08:58.136Z,53.22
2018-05-16T04:11:29.106Z,52.73
2018-05-16T04:13:59.784Z,52.28
2018-05-16T04:16:30.375Z,52.21
2018-05-16T04:21:42.515Z,52.35
2018-05-16T04:24:19.165Z,52.51
2018-05-16T04:26:50.218Z,51.86
2018-05-16T04:29:20.718Z,51.64
2018-05-16T04:31:51.893Z,51.32
2018-05-16T04:34:23.553Z,51.54
2018-05-16T04:36:54.350Z,52.21
2018-05-16T04:39:25.586Z,52.36
2018-05-16T04:41:57.574Z,52.48
2018-05-16T04:44:31.404Z,51.88
2018-05-16T04:47:02.682Z,52.21
2018-05-16T04:49:38.258Z,53.55
2018-05-16T04:52:14.497Z,54.48
2018-05-16T04:54:47.212Z,54.85
2018-05-16T04:57:19.433Z,53.89
2018-05-16T04:59:50.025Z,52.86
2018-05-16T05:02:21.477Z,51.98
2018-05-16T05:04:53.289Z,51.25
2018-05-16T05:07:23.729Z,50.94
2018-05-16T05:09:54.278Z,49.63
2018-05-16T05:12:24.807Z,48.66
2018-05-16T05:14:55.879Z,47.91
2018-05-16T05:17:26.763Z,47.14
2018-05-16T05:19:57.370Z,46.50
2018-05-16T05:22:28.108Z,46.13
2018-05-16T05:24:59.174Z,46.35
2018-05-16T05:27:29.928Z,46.29
2018-05-16T05:30:03.640Z,45.35
2018-05-16T05:32:34.179Z,44.94
2018-05-16T05:35:05.474Z,44.26
2018-05-16T05:37:35.987Z,44.38
2018-05-16T05:40:06.457Z,44.18
2018-05-16T05:42:36.938Z,43.29
2018-05-16T05:45:08.213Z,42.72
2018-05-16T05:47:39.231Z,41.91
2018-05-16T05:50:11.087Z,41.81
2018-05-16T05:52:46.002Z,42.00
2018-05-16T05:55:16.988Z,41.97
2018-05-16T05:57:47.351Z,41.12
2018-05-16T06:00:25.619Z,41.21
2018-05-16T06:05:28.188Z,39.84
2018-05-16T06:07:58.536Z,40.27
2018-05-16T06:10:29.219Z,40.13
2018-05-16T06:13:00.267Z,39.83
2018-05-16T06:15:31.490Z,40.14
2018-05-16T06:18:02.838Z,40.28
2018-05-16T06:20:35.163Z,39.85
2018-05-16T06:25:48.093Z,37.77
2018-05-16T06:28:18.819Z,36.26
2018-05-16T06:30:56.845Z,35.92
2018-05-16T06:33:30.262Z,35.78
2018-05-16T06:36:02.963Z,35.22
2018-05-16T06:38:38.805Z,34.83
2018-05-16T06:41:12.929Z,33.81
2018-05-16T06:43:43.447Z,32.12
2018-05-16T06:46:16.756Z,32.70
2018-05-16T06:48:56.081Z,32.51
2018-05-16T06:51:41.570Z,33.08
2018-05-16T06:54:17.193Z,33.04
2018-05-16T06:56:49.760Z,33.21
2018-05-16T06:59:27.842Z,33.27
2018-05-16T07:02:02.507Z,33.06
2018-05-16T07:04:40.094Z,32.11
2018-05-16T07:07:14.021Z,32.61
2018-05-16T07:09:46.273Z,32.78
2018-05-16T07:12:18.645Z,32.57
2018-05-16T07:14:49.476Z,31.21
2018-05-16T07:17:20.939Z,31.37
2018-05-16T07:19:52.785Z,31.81
2018-05-16T07:22:24.133Z,32.47
2018-05-16T07:24:55.102Z,31.93
2018-05-16T07:27:31.830Z,31.28
2018-05-16T07:30:19.814Z,31.87
2018-05-16T07:32:51.094Z,32.03
2018-05-16T07:35:23.812Z,32.14
2018-05-16T07:37:54.668Z,31.76
2018-05-16T07:40:39.318Z,31.70
2018-05-16T07:43:17.447Z,31.96
2018-05-16T07:45:49.387Z,31.14
2018-05-16T07:48:28.413Z,31.62
2018-05-16T07:51:01.146Z,31.77
2018-05-16T07:53:31.918Z,30.74
2018-05-16T07:56:04.704Z,30.47
2018-05-16T07:58:38.588Z,30.55
2018-05-16T08:01:15.122Z,30.34
2018-05-16T08:03:48.267Z,29.42
2018-05-16T08:06:28.169Z,29.37
2018-05-16T08:09:00.583Z,28.62
2018-05-16T08:11:33.857Z,29.57
2018-05-16T08:14:04.779Z,29.83
2018-05-16T08:16:38.281Z,30.27
2018-05-16T08:19:10.425Z,31.18
2018-05-16T08:21:43.148Z,32.06
2018-05-16T08:24:17.564Z,32.02
2018-05-16T08:26:50.666Z,31.41
2018-05-16T08:29:22.436Z,30.79
2018-05-16T08:31:53.641Z,31.35
2018-05-16T08:34:47.053Z,31.64
2018-05-16T08:37:19.526Z,31.27
2018-05-16T08:39:50.859Z,31.84
2018-05-16T08:42:22.507Z,32.84
2018-05-16T08:44:54.271Z,33.70
2018-05-16T08:47:29.326Z,33.65
2018-05-16T08:50:01.684Z,34.83
2018-05-16T08:52:32.391Z,34.59
2018-05-16T08:55:09.031Z,35.49
2018-05-16T08:57:42.592Z,35.61
2018-05-16T09:00:21.142Z,35.43
2018-05-16T09:02:52.216Z,35.98
2018-05-16T09:05:23.548Z,36.31
2018-05-16T09:07:54.693Z,36.54
2018-05-16T09:10:26.196Z,36.54
2018-05-16T09:13:02.169Z,36.51
2018-05-16T09:15:44.347Z,36.35
2018-05-16T09:18:16.272Z,35.84
2018-05-16T09:20:47.010Z,35.42
2018-05-16T09:26:07.776Z,35.55
2018-05-16T09:28:39.067Z,35.91
2018-05-16T09:31:09.543Z,35.81
2018-05-16T09:33:43.665Z,33.70
2018-05-16T09:36:15.086Z,33.98
2018-05-16T09:38:46.334Z,33.11
2018-05-16T09:41:18.747Z,33.87
2018-05-16T09:43:50.588Z,33.74
2018-05-16T09:46:21.192Z,34.60
2018-05-16T09:48:52.462Z,34.65
2018-05-16T09:51:23.489Z,34.43
2018-05-16T09:53:57.586Z,34.57
2018-05-16T09:56:35.268Z,34.37
2018-05-16T09:59:08.989Z,33.33
2018-05-16T10:01:40.043Z,32.47
2018-05-16T10:04:12.910Z,30.95
2018-05-16T10:06:48.838Z,31.56
2018-05-16T10:09:24.243Z,32.12
2018-05-16T10:11:54.843Z,32.58
2018-05-16T10:14:27.843Z,32.90
2018-05-16T10:17:00.334Z,32.64
2018-05-16T10:22:07.653Z,33.31
2018-05-16T10:24:39.821Z,32.84
2018-05-16T10:27:27.247Z,32.98
2018-05-16T10:30:05.865Z,33.59
2018-05-16T10:32:51.025Z,33.77
2018-05-16T10:35:22.591Z,34.18
2018-05-16T10:37:54.148Z,34.28
2018-05-16T10:41:28.738Z,33.86
2018-05-16T10:44:01.666Z,32.82
2018-05-16T10:46:33.673Z,33.10
2018-05-16T10:49:05.350Z,33.00
2018-05-16T10:51:36.863Z,33.45
2018-05-16T10:54:07.365Z,34.46
2018-05-16T10:56:37.989Z,34.95
2018-05-16T10:59:09.322Z,35.10
2018-05-16T11:01:40.603Z,35.65
2018-05-16T11:04:11.940Z,37.54
2018-05-16T11:06:53.562Z,39.68
2018-05-16T11:09:25.561Z,38.33
2018-05-16T11:11:57.455Z,38.85
2018-05-16T11:14:29.746Z,35.99
2018-05-16T11:17:00.606Z,35.41
2018-05-16T11:19:31.640Z,34.29
2018-05-16T11:22:03.583Z,34.46
2018-05-16T11:24:40.491Z,34.22
2018-05-16T11:27:13.477Z,33.91
2018-05-16T11:29:45.426Z,34.46
2018-05-16T11:32:21.486Z,34.43
2018-05-16T11:34:53.429Z,35.21
2018-05-16T11:40:11.867Z,35.47
2018-05-16T11:45:29.388Z,35.34
2018-05-16T11:48:00.267Z,34.34
2018-05-16T11:50:31.178Z,34.42
2018-05-16T11:53:01.756Z,33.52
2018-05-16T11:55:33.716Z,32.12
2018-05-16T11:58:04.343Z,32.52
2018-05-16T12:00:36.030Z,31.70
2018-05-16T12:03:07.255Z,32.28
2018-05-16T12:05:37.809Z,32.28
2018-05-16T12:08:16.113Z,31.79
2018-05-16T12:10:48.980Z,32.43
2018-05-16T12:13:22.668Z,34.07
2018-05-16T12:15:54.493Z,34.92
2018-05-16T12:18:25.561Z,35.95
2018-05-16T12:21:11.059Z,35.99
2018-05-16T12:23:57.524Z,35.96
2018-05-16T12:26:41.340Z,36.78
2018-05-16T12:29:16.114Z,36.95
2018-05-16T12:31:47.391Z,36.79
2018-05-16T12:34:18.424Z,37.68
2018-05-16T12:36:50.057Z,37.49
2018-05-16T12:39:21.928Z,37.65
2018-05-16T12:45:09.195Z,37.59
2018-05-16T12:47:45.489Z,37.52
2018-05-16T12:50:18.728Z,37.27
2018-05-16T12:53:03.483Z,37.04
2018-05-16T12:55:35.628Z,36.47
2018-05-16T12:58:08.305Z,35.78
2018-05-16T13:00:39.528Z,36.20
2018-05-16T13:03:10.242Z,36.68
2018-05-16T13:05:42.823Z,36.69
2018-05-16T13:08:26.773Z,37.22
2018-05-16T13:11:01.733Z,36.66
2018-05-16T13:13:34.048Z,35.48
2018-05-16T13:16:06.664Z,34.02
2018-05-16T13:18:38.925Z,33.53
2018-05-16T13:21:09.993Z,32.76
2018-05-16T13:23:41.210Z,32.57
2018-05-16T13:26:12.201Z,32.11
2018-05-16T13:28:44.743Z,32.46
2018-05-16T13:31:16.908Z,32.60
2018-05-16T13:33:48.078Z,33.50
2018-05-16T13:36:20.856Z,33.38
2018-05-16T13:38:52.015Z,33.07
2018-05-16T13:41:23.156Z,33.88
2018-05-16T13:43:55.668Z,34.06
2018-05-16T13:46:29.125Z,35.06
2018-05-16T13:49:16.026Z,35.53
2018-05-16T13:51:46.452Z,35.68
2018-05-16T13:54:18.126Z,35.76
2018-05-16T13:56:48.511Z,35.90
2018-05-16T13:59:19.507Z,35.95
2018-05-16T14:01:50.646Z,35.29
2018-05-16T14:04:21.543Z,35.48
2018-05-16T14:07:03.912Z,35.62
2018-05-16T14:09:36.523Z,36.08
2018-05-16T14:12:16.204Z,36.61
2018-05-16T14:14:49.870Z,37.33
2018-05-16T14:17:22.804Z,37.67
2018-05-16T14:19:54.082Z,37.44
2018-05-16T14:22:28.133Z,37.77
2018-05-16T14:25:04.145Z,37.83
2018-05-16T14:27:41.037Z,38.11
2018-05-16T14:30:15.479Z,38.67
2018-05-16T14:33:04.308Z,38.88
2018-05-16T14:35:42.889Z,38.77
2018-05-16T14:38:20.186Z,38.26
2018-05-16T14:40:51.386Z,37.91
2018-05-16T14:43:34.130Z,37.40
2018-05-16T14:46:08.593Z,37.59
2018-05-16T14:48:41.581Z,37.30
2018-05-16T14:51:13.155Z,37.45
2018-05-16T14:53:45.964Z,37.80
2018-05-16T14:56:17.254Z,39.88
2018-05-16T14:58:47.868Z,39.47
2018-05-16T15:01:19.428Z,39.35
2018-05-16T15:03:56.546Z,39.68
2018-05-16T15:06:27.584Z,39.20
2018-05-16T15:09:07.090Z,39.66
2018-05-16T15:11:38.549Z,39.92
2018-05-16T15:14:15.973Z,39.86
2018-05-16T15:16:48.208Z,40.38
2018-05-16T15:19:19.004Z,41.13
2018-05-16T15:21:54.378Z,40.49
2018-05-16T15:24:26.280Z,40.18
2018-05-16T15:27:00.816Z,39.40
2018-05-16T15:29:35.472Z,38.97
2018-05-16T15:32:12.123Z,38.49
2018-05-16T15:37:29.588Z,38.23
2018-05-16T15:40:07.300Z,38.27
2018-05-16T15:42:42.427Z,38.56
2018-05-16T15:45:22.830Z,38.57
2018-05-16T15:47:59.195Z,38.37
2018-05-16T15:50:32.313Z,38.47
2018-05-16T15:53:22.852Z,38.82
2018-05-16T15:56:14.804Z,39.33
2018-05-16T16:01:49.503Z,39.99
2018-05-16T16:04:30.539Z,40.61
2018-05-16T16:07:06.545Z,40.43
2018-05-16T16:09:41.511Z,41.09
2018-05-16T16:12:24.686Z,41.96
2018-05-16T16:15:22.477Z,41.74
2018-05-16T16:17:53.559Z,42.41
2018-05-16T16:20:26.293Z,43.72
2018-05-16T16:23:03.811Z,45.94
2018-05-16T16:25:57.857Z,47.20
2018-05-16T16:28:31.092Z,48.06
2018-05-16T16:31:05.555Z,48.68
2018-05-16T16:33:41.704Z,48.21
2018-05-16T16:36:19.795Z,48.30
2018-05-16T16:39:02.108Z,48.64
2018-05-16T16:44:42.492Z,48.98
2018-05-16T16:47:18.609Z,48.60
2018-05-16T16:49:55.846Z,47.86
2018-05-16T16:52:36.933Z,47.10
2018-05-16T16:55:15.204Z,46.28
2018-05-16T16:57:50.349Z,45.88
2018-05-16T17:00:26.600Z,45.51
2018-05-16T17:03:09.472Z,45.22
2018-05-16T17:05:42.656Z,45.02
2018-05-16T17:08:15.292Z,45.25
2018-05-16T17:10:49.011Z,45.56
2018-05-16T17:13:20.596Z,46.95
2018-05-16T17:15:52.994Z,48.48
2018-05-16T17:18:31.226Z,49.23
2018-05-16T17:21:04.767Z,50.32
2018-05-16T17:23:40.283Z,51.07
2018-05-16T17:26:21.450Z,51.85
2018-05-16T17:29:09.902Z,52.30
2018-05-16T17:31:45.746Z,57.06
2018-05-16T17:36:57.154Z,58.92
2018-05-16T17:39:29.335Z,59.28
2018-05-16T17:44:40.947Z,57.49
2018-05-16T17:47:19.415Z,58.79
2018-05-16T17:49:53.606Z,60.11
2018-05-16T17:52:28.691Z,57.57
2018-05-16T17:54:59.785Z,56.60
2018-05-16T17:57:42.466Z,57.16
2018-05-16T18:00:21.770Z,57.72
2018-05-16T18:02:53.578Z,57.79
2018-05-16T18:05:34.608Z,56.75
2018-05-16T18:08:17.055Z,57.17
2018-05-16T18:10:52.936Z,56.62
2018-05-16T18:17:52.044Z,58.23
2018-05-16T18:20:23.662Z,58.53
2018-05-16T18:23:07.138Z,58.18
2018-05-16T18:25:39.600Z,58.61
2018-05-16T18:28:26.366Z,59.44
2018-05-16T18:31:06.707Z,59.57
2018-05-16T18:36:37.386Z,58.95
2018-05-16T18:39:12.487Z,60.11
2018-05-16T18:42:20.146Z,61.49
2018-05-16T18:47:53.480Z,58.47
2018-05-16T18:50:26.881Z,58.86
2018-05-16T18:52:58.751Z,57.81
2018-05-16T18:55:31.274Z,58.17
2018-05-16T18:58:03.279Z,58.29
2018-05-16T19:00:34.332Z,57.66
2018-05-16T19:03:05.843Z,57.20
2018-05-16T19:05:43.668Z,57.60
2018-05-16T19:08:19.136Z,57.70
2018-05-16T19:10:53.898Z,58.17
2018-05-16T19:13:25.766Z,59.26
2018-05-16T19:16:05.510Z,60.09
2018-05-16T19:18:37.522Z,60.48
2018-05-16T19:21:18.845Z,60.33
2018-05-16T19:24:01.938Z,59.74
2018-05-16T19:26:35.275Z,58.98
2018-05-16T19:29:06.360Z,59.53
2018-05-16T19:31:45.205Z,59.58
2018-05-16T19:34:21.633Z,58.92
2018-05-16T19:36:52.813Z,58.76
2018-05-16T19:39:23.984Z,58.47
2018-05-16T19:41:55.452Z,58.05
2018-05-16T19:44:26.193Z,57.33
2018-05-16T19:46:57.400Z,57.90
2018-05-16T19:49:28.677Z,58.55
2018-05-16T19:51:59.020Z,59.08
2018-05-16T19:54:30.562Z,59.75
2018-05-16T19:57:01.747Z,59.98
2018-05-16T19:59:36.710Z,60.77
2018-05-16T20:02:09.350Z,59.66
2018-05-16T20:04:40.008Z,58.46
2018-05-16T20:07:10.359Z,54.38
2018-05-16T20:10:11.494Z,54.51
2018-05-16T20:12:43.700Z,53.68
2018-05-16T20:15:18.183Z,52.40
2018-05-16T20:17:49.454Z,52.84
2018-05-16T20:20:20.208Z,52.80
2018-05-16T20:22:54.626Z,51.15
2018-05-16T20:25:27.397Z,51.89
2018-05-16T20:28:11.114Z,52.16
2018-05-16T20:30:46.420Z,51.94
2018-05-16T20:33:18.158Z,51.77
2018-05-16T20:35:50.128Z,51.77
2018-05-16T20:38:20.873Z,51.52
2018-05-16T20:40:57.066Z,51.42
2018-05-16T20:43:28.437Z,51.97
2018-05-16T20:45:59.834Z,51.59
2018-05-16T20:48:31.305Z,51.41
2018-05-16T20:51:02.101Z,52.03
2018-05-16T20:53:41.792Z,51.01
2018-05-16T20:56:14.310Z,51.02
2018-05-16T20:58:46.105Z,51.18
2018-05-16T21:01:18.346Z,51.33
2018-05-16T21:03:51.554Z,51.62
2018-05-16T21:06:22.613Z,51.81
2018-05-16T21:08:53.041Z,51.49
2018-05-16T21:11:26.554Z,51.69
2018-05-16T21:13:59.220Z,52.32
2018-05-16T21:16:30.654Z,52.32
2018-05-16T21:19:01.832Z,52.54
2018-05-16T21:21:32.169Z,53.11
2018-05-16T21:24:05.719Z,53.05
2018-05-16T21:26:37.081Z,53.86
2018-05-16T21:32:03.234Z,54.33
2018-05-16T21:34:33.713Z,54.65
2018-05-16T21:37:05.316Z,54.90
2018-05-16T21:39:36.786Z,55.31
2018-05-16T21:42:08.831Z,55.41
2018-05-16T21:44:43.268Z,55.65
2018-05-16T21:47:18.329Z,55.64
2018-05-16T21:49:52.048Z,55.64
2018-05-16T21:52:24.977Z,56.00
2018-05-16T21:55:03.391Z,56.19
2018-05-16T21:57:40.519Z,56.50
2018-05-16T22:00:27.497Z,56.93
2018-05-16T22:02:58.268Z,57.34
2018-05-16T22:05:29.049Z,57.36
2018-05-16T22:10:44.880Z,58.09
2018-05-16T22:13:17.442Z,57.63
2018-05-16T22:15:49.291Z,57.54
2018-05-16T22:18:23.235Z,57.53
2018-05-16T22:20:54.009Z,57.37
2018-05-16T22:23:29.057Z,57.51
2018-05-16T22:26:03.450Z,57.71
2018-05-16T22:28:39.495Z,57.69
2018-05-16T22:31:19.564Z,58.13
2018-05-16T22:33:56.553Z,58.46
2018-05-16T22:36:35.952Z,58.71
2018-05-16T22:39:18.840Z,58.80
2018-05-16T22:41:58.676Z,58.52
2018-05-16T22:44:29.910Z,58.92
2018-05-16T22:49:57.610Z,59.86
2018-05-16T22:52:28.319Z,60.27
2018-05-16T22:54:58.691Z,60.24
2018-05-16T22:57:29.058Z,59.75
2018-05-16T22:59:59.798Z,59.83
2018-05-16T23:02:31.826Z,59.45
2018-05-16T23:05:04.154Z,59.59
2018-05-16T23:07:34.616Z,59.43
2018-05-16T23:10:05.160Z,59.31
2018-05-16T23:12:35.892Z,58.79
2018-05-16T23:15:07.114Z,58.37
2018-05-16T23:17:42.354Z,57.70
2018-05-16T23:20:15.437Z,58.25
2018-05-16T23:22:46.175Z,58.49
2018-05-16T23:25:16.677Z,58.28
2018-05-16T23:27:47.207Z,58.20
2018-05-16T23:30:18.303Z,58.53
2018-05-16T23:32:51.479Z,57.86
2018-05-16T23:35:33.929Z,58.42
2018-05-16T23:38:05.742Z,59.06
2018-05-16T23:40:45.067Z,59.17
2018-05-16T23:43:17.857Z,59.60
2018-05-16T23:45:49.096Z,59.44
2018-05-16T23:48:19.497Z,59.23
2018-05-16T23:50:50.279Z,58.51
2018-05-16T23:53:20.639Z,58.36
2018-05-16T23:55:51.703Z,58.03
2018-05-16T23:58:23.172Z,58.15
